sensor_id;sensor_type;location;lat;lon;timestamp;pressure;altitude;pressure_sealevel;temperature;humidity
29169;BME280;16219;42.864;23.360;2023-05-07T00:00:41;96092.28;;;9.95;100.00
29169;BME280;16219;42.864;23.360;2023-05-07T00:03:08;96108.38;;;9.94;100.00
29169;BME280;16219;42.864;23.360;2023-05-07T00:05:38;96111.88;;;10.03;100.00
29169;BME280;16219;42.864;23.360;2023-05-07T00:08:05;96100.59;;;9.89;100.00
29169;BME280;16219;42.864;23.360;2023-05-07T00:10:33;96102.06;;;9.81;100.00
29169;BME280;16219;42.864;23.360;2023-05-07T00:13:00;96105.31;;;9.78;100.00
29169;BME280;16219;42.864;23.360;2023-05-07T00:15:27;96099.94;;;9.83;100.00
29169;BME280;16219;42.864;23.360;2023-05-07T00:17:55;96105.22;;;9.83;100.00
29169;BME280;16219;42.864;23.360;2023-05-07T00:20:23;96094.22;;;9.67;100.00
29169;BME280;16219;42.864;23.360;2023-05-07T00:22:51;96094.72;;;9.69;100.00
29169;BME280;16219;42.864;23.360;2023-05-07T00:25:18;96065.66;;;9.47;100.00
29169;BME280;16219;42.864;23.360;2023-05-07T00:27:46;96093.31;;;9.72;100.00
29169;BME280;16219;42.864;23.360;2023-05-07T00:30:14;96095.56;;;9.79;100.00
29169;BME280;16219;42.864;23.360;2023-05-07T00:32:42;96098.84;;;9.84;100.00
29169;BME280;16219;42.864;23.360;2023-05-07T00:35:11;96095.38;;;9.75;100.00
29169;BME280;16219;42.864;23.360;2023-05-07T00:37:38;96089.63;;;9.73;100.00
29169;BME280;16219;42.864;23.360;2023-05-07T00:40:07;96084.56;;;9.63;100.00
29169;BME280;16219;42.864;23.360;2023-05-07T00:42:35;96106.59;;;9.67;100.00
29169;BME280;16219;42.864;23.360;2023-05-07T00:45:03;96101.06;;;9.55;100.00
29169;BME280;16219;42.864;23.360;2023-05-07T00:47:31;96097.47;;;9.50;100.00
29169;BME280;16219;42.864;23.360;2023-05-07T00:49:58;96094.53;;;9.38;100.00
29169;BME280;16219;42.864;23.360;2023-05-07T00:52:25;96087.72;;;9.37;100.00
29169;BME280;16219;42.864;23.360;2023-05-07T00:54:53;96103.91;;;9.44;100.00
29169;BME280;16219;42.864;23.360;2023-05-07T00:57:24;96105.88;;;9.39;100.00
29169;BME280;16219;42.864;23.360;2023-05-07T00:59:51;96099.03;;;9.38;100.00
29169;BME280;16219;42.864;23.360;2023-05-07T01:02:18;96112.97;;;9.38;100.00
29169;BME280;16219;42.864;23.360;2023-05-07T01:04:45;96109.56;;;9.38;100.00
29169;BME280;16219;42.864;23.360;2023-05-07T01:07:12;96110.34;;;9.38;100.00
29169;BME280;16219;42.864;23.360;2023-05-07T01:09:39;96109.78;;;9.27;100.00
29169;BME280;16219;42.864;23.360;2023-05-07T01:12:07;96107.81;;;9.33;100.00
29169;BME280;16219;42.864;23.360;2023-05-07T01:14:36;96102.56;;;9.33;100.00
29169;BME280;16219;42.864;23.360;2023-05-07T01:17:03;96114.28;;;9.27;100.00
29169;BME280;16219;42.864;23.360;2023-05-07T01:19:30;96110.38;;;9.24;100.00
29169;BME280;16219;42.864;23.360;2023-05-07T01:22:03;96111.44;;;9.23;100.00
29169;BME280;16219;42.864;23.360;2023-05-07T01:24:44;96113.88;;;9.20;100.00
29169;BME280;16219;42.864;23.360;2023-05-07T01:27:12;96124.97;;;9.17;100.00
29169;BME280;16219;42.864;23.360;2023-05-07T01:29:40;96115.31;;;9.12;100.00
29169;BME280;16219;42.864;23.360;2023-05-07T01:32:07;96118.56;;;9.09;100.00
29169;BME280;16219;42.864;23.360;2023-05-07T01:34:36;96118.38;;;9.06;100.00
29169;BME280;16219;42.864;23.360;2023-05-07T01:37:03;96118.38;;;9.06;100.00
29169;BME280;16219;42.864;23.360;2023-05-07T01:39:31;96101.78;;;9.05;100.00
29169;BME280;16219;42.864;23.360;2023-05-07T01:42:00;96115.94;;;9.09;100.00
29169;BME280;16219;42.864;23.360;2023-05-07T01:44:27;96105.50;;;9.18;100.00
29169;BME280;16219;42.864;23.360;2023-05-07T01:46:56;96108.41;;;9.16;100.00
29169;BME280;16219;42.864;23.360;2023-05-07T01:49:23;96104.13;;;9.07;100.00
29169;BME280;16219;42.864;23.360;2023-05-07T01:51:51;96099.22;;;8.86;100.00
29169;BME280;16219;42.864;23.360;2023-05-07T01:54:18;96092.03;;;8.92;100.00
29169;BME280;16219;42.864;23.360;2023-05-07T01:57:04;96093.09;;;8.91;100.00
29169;BME280;16219;42.864;23.360;2023-05-07T01:59:36;96091.44;;;8.81;100.00
29169;BME280;16219;42.864;23.360;2023-05-07T02:02:03;96092.00;;;8.78;100.00
29169;BME280;16219;42.864;23.360;2023-05-07T02:04:32;96088.31;;;8.79;100.00
29169;BME280;16219;42.864;23.360;2023-05-07T02:06:59;96088.81;;;8.81;100.00
29169;BME280;16219;42.864;23.360;2023-05-07T02:09:26;96081.88;;;8.71;100.00
29169;BME280;16219;42.864;23.360;2023-05-07T02:11:54;96083.03;;;8.79;100.00
29169;BME280;16219;42.864;23.360;2023-05-07T02:14:23;96081.41;;;8.83;100.00
29169;BME280;16219;42.864;23.360;2023-05-07T02:16:51;96078.88;;;8.78;100.00
29169;BME280;16219;42.864;23.360;2023-05-07T02:19:18;96076.53;;;8.76;100.00
29169;BME280;16219;42.864;23.360;2023-05-07T02:21:47;96070.41;;;8.81;100.00
29169;BME280;16219;42.864;23.360;2023-05-07T02:24:14;96075.34;;;8.83;100.00
29169;BME280;16219;42.864;23.360;2023-05-07T02:26:41;96070.75;;;8.74;100.00
29169;BME280;16219;42.864;23.360;2023-05-07T02:29:08;96067.34;;;8.74;100.00
29169;BME280;16219;42.864;23.360;2023-05-07T02:31:38;96078.19;;;8.72;100.00
29169;BME280;16219;42.864;23.360;2023-05-07T02:34:05;96081.78;;;8.63;100.00
29169;BME280;16219;42.864;23.360;2023-05-07T02:36:32;96075.91;;;8.66;100.00
29169;BME280;16219;42.864;23.360;2023-05-07T02:39:05;96077.97;;;8.69;100.00
29169;BME280;16219;42.864;23.360;2023-05-07T02:41:32;96077.66;;;8.57;100.00
29169;BME280;16219;42.864;23.360;2023-05-07T02:43:59;96074.16;;;8.61;100.00
29169;BME280;16219;42.864;23.360;2023-05-07T02:46:26;96073.97;;;8.58;100.00
29169;BME280;16219;42.864;23.360;2023-05-07T02:49:01;96079.72;;;8.60;100.00
29169;BME280;16219;42.864;23.360;2023-05-07T02:51:30;96073.06;;;8.48;100.00
29169;BME280;16219;42.864;23.360;2023-05-07T02:54:00;96079.31;;;8.52;100.00
29169;BME280;16219;42.864;23.360;2023-05-07T02:56:28;96077.56;;;8.48;100.00
29169;BME280;16219;42.864;23.360;2023-05-07T02:58:56;96075.78;;;8.43;100.00
29169;BME280;16219;42.864;23.360;2023-05-07T03:01:27;96088.00;;;8.34;100.00
29169;BME280;16219;42.864;23.360;2023-05-07T03:04:04;96087.47;;;8.37;100.00
29169;BME280;16219;42.864;23.360;2023-05-07T03:06:32;96090.34;;;8.36;100.00
29169;BME280;16219;42.864;23.360;2023-05-07T03:08:58;96090.59;;;8.39;100.00
29169;BME280;16219;42.864;23.360;2023-05-07T03:11:26;96088.31;;;8.33;100.00
29169;BME280;16219;42.864;23.360;2023-05-07T03:13:53;96084.69;;;8.29;100.00
29169;BME280;16219;42.864;23.360;2023-05-07T03:16:21;96091.13;;;8.36;100.00
29169;BME280;16219;42.864;23.360;2023-05-07T03:18:48;96097.13;;;8.23;100.00
29169;BME280;16219;42.864;23.360;2023-05-07T03:21:17;96094.81;;;8.35;100.00
29169;BME280;16219;42.864;23.360;2023-05-07T03:23:44;96099.09;;;8.31;100.00
29169;BME280;16219;42.864;23.360;2023-05-07T03:26:11;96095.84;;;8.39;100.00
29169;BME280;16219;42.864;23.360;2023-05-07T03:28:38;96103.44;;;8.41;100.00
29169;BME280;16219;42.864;23.360;2023-05-07T03:31:10;96101.16;;;8.34;100.00
29169;BME280;16219;42.864;23.360;2023-05-07T03:33:49;96108.13;;;8.25;100.00
29169;BME280;16219;42.864;23.360;2023-05-07T03:36:19;96098.63;;;8.29;100.00
29169;BME280;16219;42.864;23.360;2023-05-07T03:38:46;96103.38;;;8.27;100.00
29169;BME280;16219;42.864;23.360;2023-05-07T03:41:17;96106.97;;;8.31;100.00
29169;BME280;16219;42.864;23.360;2023-05-07T03:43:45;96104.00;;;8.19;100.00
29169;BME280;16219;42.864;23.360;2023-05-07T03:46:13;96107.50;;;8.33;100.00
29169;BME280;16219;42.864;23.360;2023-05-07T03:48:40;96112.25;;;8.31;100.00
29169;BME280;16219;42.864;23.360;2023-05-07T03:51:07;96120.28;;;8.40;100.00
29169;BME280;16219;42.864;23.360;2023-05-07T03:53:35;96123.69;;;8.40;100.00
29169;BME280;16219;42.864;23.360;2023-05-07T03:56:03;96128.72;;;8.56;100.00
29169;BME280;16219;42.864;23.360;2023-05-07T03:58:34;96123.44;;;8.56;100.00
29169;BME280;16219;42.864;23.360;2023-05-07T04:01:06;96119.75;;;8.57;100.00
29169;BME280;16219;42.864;23.360;2023-05-07T04:03:34;96124.75;;;8.72;100.00
29169;BME280;16219;42.864;23.360;2023-05-07T04:06:01;96126.50;;;8.76;100.00
29169;BME280;16219;42.864;23.360;2023-05-07T04:08:30;96137.06;;;8.90;100.00
29169;BME280;16219;42.864;23.360;2023-05-07T04:10:59;96138.06;;;9.22;100.00
29169;BME280;16219;42.864;23.360;2023-05-07T04:13:29;96146.81;;;9.59;100.00
29169;BME280;16219;42.864;23.360;2023-05-07T04:15:58;96149.41;;;9.86;100.00
29169;BME280;16219;42.864;23.360;2023-05-07T04:18:26;96157.91;;;10.56;100.00
29169;BME280;16219;42.864;23.360;2023-05-07T04:20:53;96161.78;;;11.51;100.00
29169;BME280;16219;42.864;23.360;2023-05-07T04:23:20;96168.75;;;12.22;100.00
29169;BME280;16219;42.864;23.360;2023-05-07T04:25:48;96162.28;;;13.01;100.00
29169;BME280;16219;42.864;23.360;2023-05-07T04:28:27;96173.03;;;13.81;100.00
29169;BME280;16219;42.864;23.360;2023-05-07T04:30:54;96176.13;;;14.55;100.00
29169;BME280;16219;42.864;23.360;2023-05-07T04:33:21;96186.13;;;15.03;100.00
29169;BME280;16219;42.864;23.360;2023-05-07T04:35:49;96177.34;;;15.48;100.00
29169;BME280;16219;42.864;23.360;2023-05-07T04:38:17;96190.09;;;15.91;100.00
29169;BME280;16219;42.864;23.360;2023-05-07T04:40:45;96183.91;;;16.40;100.00
29169;BME280;16219;42.864;23.360;2023-05-07T04:43:17;96180.50;;;16.95;97.07
29169;BME280;16219;42.864;23.360;2023-05-07T04:45:51;96178.81;;;17.35;92.16
29169;BME280;16219;42.864;23.360;2023-05-07T04:48:19;96172.00;;;17.69;87.71
29169;BME280;16219;42.864;23.360;2023-05-07T04:50:48;96168.13;;;18.17;82.78
29169;BME280;16219;42.864;23.360;2023-05-07T04:53:16;96177.22;;;18.32;79.98
29169;BME280;16219;42.864;23.360;2023-05-07T04:55:44;96177.38;;;18.04;85.00
29169;BME280;16219;42.864;23.360;2023-05-07T04:58:12;96174.09;;;17.76;86.17
29169;BME280;16219;42.864;23.360;2023-05-07T05:00:41;96180.72;;;16.90;86.97
29169;BME280;16219;42.864;23.360;2023-05-07T05:03:11;96178.00;;;16.06;97.05
29169;BME280;16219;42.864;23.360;2023-05-07T05:05:39;96177.00;;;15.37;100.00
29169;BME280;16219;42.864;23.360;2023-05-07T05:08:06;96177.47;;;14.61;100.00
29169;BME280;16219;42.864;23.360;2023-05-07T05:10:36;96149.22;;;14.35;100.00
29169;BME280;16219;42.864;23.360;2023-05-07T05:13:05;96172.19;;;14.73;100.00
29169;BME280;16219;42.864;23.360;2023-05-07T05:15:32;96171.66;;;15.13;100.00
29169;BME280;16219;42.864;23.360;2023-05-07T05:18:00;96166.81;;;15.52;100.00
29169;BME280;16219;42.864;23.360;2023-05-07T05:20:29;96168.13;;;15.58;100.00
29169;BME280;16219;42.864;23.360;2023-05-07T05:22:56;96168.00;;;15.05;100.00
29169;BME280;16219;42.864;23.360;2023-05-07T05:25:23;96169.28;;;14.54;100.00
29169;BME280;16219;42.864;23.360;2023-05-07T05:27:53;96173.44;;;14.13;100.00
29169;BME280;16219;42.864;23.360;2023-05-07T05:30:21;96170.47;;;13.93;100.00
29169;BME280;16219;42.864;23.360;2023-05-07T05:32:48;96163.97;;;13.82;100.00
29169;BME280;16219;42.864;23.360;2023-05-07T05:35:16;96162.50;;;13.72;100.00
29169;BME280;16219;42.864;23.360;2023-05-07T05:37:45;96169.09;;;13.58;100.00
29169;BME280;16219;42.864;23.360;2023-05-07T05:40:15;96165.50;;;13.62;100.00
29169;BME280;16219;42.864;23.360;2023-05-07T05:42:42;96154.88;;;13.62;100.00
29169;BME280;16219;42.864;23.360;2023-05-07T05:45:10;96154.41;;;13.69;100.00
29169;BME280;16219;42.864;23.360;2023-05-07T05:47:38;96155.75;;;13.75;100.00
29169;BME280;16219;42.864;23.360;2023-05-07T05:50:07;96159.31;;;13.79;100.00
29169;BME280;16219;42.864;23.360;2023-05-07T05:52:35;96152.59;;;13.82;100.00
29169;BME280;16219;42.864;23.360;2023-05-07T05:55:04;96156.09;;;13.94;100.00
29169;BME280;16219;42.864;23.360;2023-05-07T05:57:34;96157.88;;;14.11;100.00
29169;BME280;16219;42.864;23.360;2023-05-07T06:00:02;96157.41;;;14.30;100.00
29169;BME280;16219;42.864;23.360;2023-05-07T06:02:32;96160.41;;;14.49;100.00
29169;BME280;16219;42.864;23.360;2023-05-07T06:05:00;96158.69;;;14.66;100.00
29169;BME280;16219;42.864;23.360;2023-05-07T06:07:27;96153.91;;;14.92;100.00
29169;BME280;16219;42.864;23.360;2023-05-07T06:09:55;96158.66;;;14.99;100.00
29169;BME280;16219;42.864;23.360;2023-05-07T06:12:23;96148.81;;;15.12;100.00
29169;BME280;16219;42.864;23.360;2023-05-07T06:14:50;96155.50;;;15.30;100.00
29169;BME280;16219;42.864;23.360;2023-05-07T06:17:18;96151.63;;;15.40;100.00
29169;BME280;16219;42.864;23.360;2023-05-07T06:19:45;96149.41;;;15.54;100.00
29169;BME280;16219;42.864;23.360;2023-05-07T06:22:14;96145.13;;;15.74;100.00
29169;BME280;16219;42.864;23.360;2023-05-07T06:24:41;96149.28;;;15.99;100.00
29169;BME280;16219;42.864;23.360;2023-05-07T06:27:09;96137.75;;;16.08;100.00
29169;BME280;16219;42.864;23.360;2023-05-07T06:29:39;96135.47;;;16.22;100.00
29169;BME280;16219;42.864;23.360;2023-05-07T06:32:13;96139.31;;;16.37;100.00
29169;BME280;16219;42.864;23.360;2023-05-07T06:34:42;96128.06;;;16.43;100.00
29169;BME280;16219;42.864;23.360;2023-05-07T06:37:10;96129.03;;;16.51;100.00
29169;BME280;16219;42.864;23.360;2023-05-07T06:39:57;96123.28;;;16.77;100.00
29169;BME280;16219;42.864;23.360;2023-05-07T06:42:24;96118.44;;;16.95;100.00
29169;BME280;16219;42.864;23.360;2023-05-07T06:44:58;96112.91;;;17.19;100.00
29169;BME280;16219;42.864;23.360;2023-05-07T06:47:28;96109.72;;;17.45;100.00
29169;BME280;16219;42.864;23.360;2023-05-07T06:49:55;96100.91;;;17.61;100.00
29169;BME280;16219;42.864;23.360;2023-05-07T06:52:25;96097.13;;;17.78;100.00
29169;BME280;16219;42.864;23.360;2023-05-07T06:54:53;96106.06;;;17.85;100.00
29169;BME280;16219;42.864;23.360;2023-05-07T06:57:22;96102.28;;;18.06;100.00
29169;BME280;16219;42.864;23.360;2023-05-07T06:59:49;96105.19;;;18.36;100.00
29169;BME280;16219;42.864;23.360;2023-05-07T07:02:19;96105.16;;;18.55;100.00
29169;BME280;16219;42.864;23.360;2023-05-07T07:04:48;96109.88;;;18.62;100.00
29169;BME280;16219;42.864;23.360;2023-05-07T07:07:16;96103.81;;;18.65;100.00
29169;BME280;16219;42.864;23.360;2023-05-07T07:09:45;96099.88;;;18.59;100.00
29169;BME280;16219;42.864;23.360;2023-05-07T07:12:15;96096.19;;;18.44;100.00
29169;BME280;16219;42.864;23.360;2023-05-07T07:14:42;96101.44;;;18.40;100.00
29169;BME280;16219;42.864;23.360;2023-05-07T07:17:09;96101.34;;;18.56;100.00
29169;BME280;16219;42.864;23.360;2023-05-07T07:19:38;96104.84;;;18.60;100.00
29169;BME280;16219;42.864;23.360;2023-05-07T07:22:05;96101.47;;;18.63;100.00
29169;BME280;16219;42.864;23.360;2023-05-07T07:24:32;96102.09;;;18.95;100.00
29169;BME280;16219;42.864;23.360;2023-05-07T07:27:03;96105.13;;;19.17;100.00
29169;BME280;16219;42.864;23.360;2023-05-07T07:29:33;96090.66;;;19.21;100.00
29169;BME280;16219;42.864;23.360;2023-05-07T07:32:01;96096.75;;;19.45;100.00
29169;BME280;16219;42.864;23.360;2023-05-07T07:34:28;96095.47;;;19.62;100.00
29169;BME280;16219;42.864;23.360;2023-05-07T07:36:58;96100.13;;;19.65;92.96
29169;BME280;16219;42.864;23.360;2023-05-07T07:39:31;96101.88;;;19.80;96.22
29169;BME280;16219;42.864;23.360;2023-05-07T07:41:59;96101.19;;;19.87;92.29
29169;BME280;16219;42.864;23.360;2023-05-07T07:44:28;96091.50;;;20.05;95.66
29169;BME280;16219;42.864;23.360;2023-05-07T07:47:00;96100.19;;;20.29;89.76
29169;BME280;16219;42.864;23.360;2023-05-07T07:49:28;96097.09;;;20.27;91.17
29169;BME280;16219;42.864;23.360;2023-05-07T07:51:58;96090.38;;;20.40;96.13
29169;BME280;16219;42.864;23.360;2023-05-07T07:54:27;96097.38;;;20.48;85.41
29169;BME280;16219;42.864;23.360;2023-05-07T07:56:56;96099.44;;;20.62;89.86
29169;BME280;16219;42.864;23.360;2023-05-07T07:59:23;96089.53;;;20.66;82.42
29169;BME280;16219;42.864;23.360;2023-05-07T08:01:51;96088.03;;;20.72;76.04
29169;BME280;16219;42.864;23.360;2023-05-07T08:04:22;96075.44;;;20.76;83.91
29169;BME280;16219;42.864;23.360;2023-05-07T08:06:49;96078.13;;;20.76;82.92
29169;BME280;16219;42.864;23.360;2023-05-07T08:09:18;96080.13;;;20.86;74.58
29169;BME280;16219;42.864;23.360;2023-05-07T08:11:46;96076.75;;;20.93;85.85
29169;BME280;16219;42.864;23.360;2023-05-07T08:14:13;96081.75;;;20.94;68.52
29169;BME280;16219;42.864;23.360;2023-05-07T08:16:45;96065.97;;;20.89;63.15
29169;BME280;16219;42.864;23.360;2023-05-07T08:19:12;96064.16;;;21.01;71.02
29169;BME280;16219;42.864;23.360;2023-05-07T08:21:40;96054.50;;;20.92;66.71
29169;BME280;16219;42.864;23.360;2023-05-07T08:24:09;96058.97;;;21.22;76.20
29169;BME280;16219;42.864;23.360;2023-05-07T08:26:38;96057.06;;;21.26;71.38
29169;BME280;16219;42.864;23.360;2023-05-07T08:29:06;96053.66;;;21.29;71.70
29169;BME280;16219;42.864;23.360;2023-05-07T08:31:34;96061.09;;;21.46;84.12
29169;BME280;16219;42.864;23.360;2023-05-07T08:34:01;96052.69;;;21.55;85.59
29169;BME280;16219;42.864;23.360;2023-05-07T08:36:28;96048.03;;;21.49;79.69
29169;BME280;16219;42.864;23.360;2023-05-07T08:38:56;96054.63;;;21.62;84.18
29169;BME280;16219;42.864;23.360;2023-05-07T08:41:23;96048.56;;;21.72;72.26
29169;BME280;16219;42.864;23.360;2023-05-07T08:43:51;96054.03;;;21.93;71.97
29169;BME280;16219;42.864;23.360;2023-05-07T08:46:20;96047.56;;;22.05;73.16
29169;BME280;16219;42.864;23.360;2023-05-07T08:48:49;96050.31;;;22.16;71.71
29169;BME280;16219;42.864;23.360;2023-05-07T08:51:18;96044.47;;;22.03;60.16
29169;BME280;16219;42.864;23.360;2023-05-07T08:53:46;96041.81;;;22.07;77.11
29169;BME280;16219;42.864;23.360;2023-05-07T08:56:20;96046.44;;;22.10;64.93
29169;BME280;16219;42.864;23.360;2023-05-07T08:58:50;96036.88;;;22.16;68.32
29169;BME280;16219;42.864;23.360;2023-05-07T09:01:22;96040.41;;;22.41;65.37
29169;BME280;16219;42.864;23.360;2023-05-07T09:03:51;96033.50;;;22.51;70.62
29169;BME280;16219;42.864;23.360;2023-05-07T09:06:21;96034.28;;;22.44;59.16
29169;BME280;16219;42.864;23.360;2023-05-07T09:08:50;96035.09;;;22.56;62.12
29169;BME280;16219;42.864;23.360;2023-05-07T09:11:20;96031.63;;;22.84;63.70
29169;BME280;16219;42.864;23.360;2023-05-07T09:13:48;96027.41;;;22.68;54.23
29169;BME280;16219;42.864;23.360;2023-05-07T09:16:17;96024.38;;;22.99;53.51
29169;BME280;16219;42.864;23.360;2023-05-07T09:18:50;96015.53;;;22.98;55.58
29169;BME280;16219;42.864;23.360;2023-05-07T09:21:18;96015.91;;;22.93;59.35
29169;BME280;16219;42.864;23.360;2023-05-07T09:23:48;96018.59;;;22.82;57.43
29169;BME280;16219;42.864;23.360;2023-05-07T09:26:16;96009.75;;;23.03;56.63
29169;BME280;16219;42.864;23.360;2023-05-07T09:28:44;96013.56;;;23.41;58.99
29169;BME280;16219;42.864;23.360;2023-05-07T09:31:13;96018.13;;;23.59;56.81
29169;BME280;16219;42.864;23.360;2023-05-07T09:33:42;96012.75;;;23.66;54.07
29169;BME280;16219;42.864;23.360;2023-05-07T09:36:12;96010.06;;;23.52;58.16
29169;BME280;16219;42.864;23.360;2023-05-07T09:38:41;96012.34;;;23.57;54.50
29169;BME280;16219;42.864;23.360;2023-05-07T09:41:10;96004.25;;;23.64;53.82
29169;BME280;16219;42.864;23.360;2023-05-07T09:43:46;95996.63;;;23.44;53.24
29169;BME280;16219;42.864;23.360;2023-05-07T09:46:15;95993.94;;;23.37;53.01
29169;BME280;16219;42.864;23.360;2023-05-07T09:48:52;95992.03;;;23.31;51.28
29169;BME280;16219;42.864;23.360;2023-05-07T09:51:25;95994.66;;;23.59;50.53
29169;BME280;16219;42.864;23.360;2023-05-07T09:53:57;95989.66;;;23.72;52.32
29169;BME280;16219;42.864;23.360;2023-05-07T09:56:27;95987.34;;;23.53;52.95
29169;BME280;16219;42.864;23.360;2023-05-07T09:58:59;95981.25;;;23.38;52.66
29169;BME280;16219;42.864;23.360;2023-05-07T10:01:31;95983.91;;;23.56;50.95
29169;BME280;16219;42.864;23.360;2023-05-07T10:04:02;95984.66;;;23.67;50.29
29169;BME280;16219;42.864;23.360;2023-05-07T10:06:31;95975.03;;;23.66;46.00
29169;BME280;16219;42.864;23.360;2023-05-07T10:08:59;95973.50;;;23.68;47.88
29169;BME280;16219;42.864;23.360;2023-05-07T10:11:27;95976.53;;;23.74;47.18
29169;BME280;16219;42.864;23.360;2023-05-07T10:13:55;95972.28;;;23.84;46.63
29169;BME280;16219;42.864;23.360;2023-05-07T10:16:23;95965.75;;;23.81;46.68
29169;BME280;16219;42.864;23.360;2023-05-07T10:18:54;95958.41;;;23.89;48.76
29169;BME280;16219;42.864;23.360;2023-05-07T10:21:27;95960.19;;;24.13;47.10
29169;BME280;16219;42.864;23.360;2023-05-07T10:24:04;95963.97;;;24.30;45.04
29169;BME280;16219;42.864;23.360;2023-05-07T10:26:36;95965.47;;;24.35;42.75
29169;BME280;16219;42.864;23.360;2023-05-07T10:29:07;95954.34;;;24.26;43.52
29169;BME280;16219;42.864;23.360;2023-05-07T10:31:58;95953.94;;;24.27;43.66
29169;BME280;16219;42.864;23.360;2023-05-07T10:34:35;95945.06;;;24.30;45.45
29169;BME280;16219;42.864;23.360;2023-05-07T10:37:12;95943.94;;;24.24;42.45
29169;BME280;16219;42.864;23.360;2023-05-07T10:39:40;95941.94;;;24.42;44.65
29169;BME280;16219;42.864;23.360;2023-05-07T10:42:09;95942.34;;;24.37;41.18
29169;BME280;16219;42.864;23.360;2023-05-07T10:44:38;95942.16;;;24.62;43.15
29169;BME280;16219;42.864;23.360;2023-05-07T10:47:16;95943.59;;;24.78;46.51
29169;BME280;16219;42.864;23.360;2023-05-07T10:50:21;95941.97;;;24.39;40.37
29169;BME280;16219;42.864;23.360;2023-05-07T10:53:24;95936.13;;;24.48;42.24
29169;BME280;16219;42.864;23.360;2023-05-07T10:56:35;95937.00;;;24.82;42.08
29169;BME280;16219;42.864;23.360;2023-05-07T10:59:32;95930.25;;;25.01;42.91
29169;BME280;16219;42.864;23.360;2023-05-07T11:02:09;95925.34;;;25.30;41.25
29169;BME280;16219;42.864;23.360;2023-05-07T11:08:02;95929.16;;;25.36;41.08
29169;BME280;16219;42.864;23.360;2023-05-07T11:11:03;95930.63;;;25.45;38.72
29169;BME280;16219;42.864;23.360;2023-05-07T11:13:42;95923.44;;;25.27;38.76
29169;BME280;16219;42.864;23.360;2023-05-07T11:16:18;95919.22;;;25.26;42.44
29169;BME280;16219;42.864;23.360;2023-05-07T11:18:48;95912.84;;;25.43;43.88
29169;BME280;16219;42.864;23.360;2023-05-07T11:21:34;95919.47;;;25.69;42.66
29169;BME280;16219;42.864;23.360;2023-05-07T11:24:24;95917.03;;;25.82;40.08
29169;BME280;16219;42.864;23.360;2023-05-07T11:26:58;95911.34;;;25.73;39.48
29169;BME280;16219;42.864;23.360;2023-05-07T11:29:26;95911.28;;;25.80;40.46
29169;BME280;16219;42.864;23.360;2023-05-07T11:32:04;95909.38;;;25.77;37.55
29169;BME280;16219;42.864;23.360;2023-05-07T11:34:38;95907.47;;;25.74;43.31
29169;BME280;16219;42.864;23.360;2023-05-07T11:37:05;95904.75;;;25.78;41.23
29169;BME280;16219;42.864;23.360;2023-05-07T11:39:48;95908.50;;;25.87;38.32
29169;BME280;16219;42.864;23.360;2023-05-07T11:42:27;95908.94;;;25.82;40.41
29169;BME280;16219;42.864;23.360;2023-05-07T11:44:55;95898.97;;;25.76;40.35
29169;BME280;16219;42.864;23.360;2023-05-07T11:47:22;95904.00;;;25.74;42.68
29169;BME280;16219;42.864;23.360;2023-05-07T11:49:50;95900.91;;;25.75;38.70
29169;BME280;16219;42.864;23.360;2023-05-07T11:52:19;95902.81;;;25.78;40.27
29169;BME280;16219;42.864;23.360;2023-05-07T11:54:49;95896.97;;;25.83;38.05
29169;BME280;16219;42.864;23.360;2023-05-07T11:57:16;95901.50;;;25.90;39.54
29169;BME280;16219;42.864;23.360;2023-05-07T11:59:44;95892.63;;;25.59;37.46
29169;BME280;16219;42.864;23.360;2023-05-07T12:02:14;95900.44;;;25.50;39.23
29169;BME280;16219;42.864;23.360;2023-05-07T12:04:41;95900.25;;;25.64;39.51
29169;BME280;16219;42.864;23.360;2023-05-07T12:07:11;95900.00;;;25.55;36.03
29169;BME280;16219;42.864;23.360;2023-05-07T12:09:39;95892.81;;;25.45;38.03
29169;BME280;16219;42.864;23.360;2023-05-07T12:12:06;95888.28;;;25.34;38.79
29169;BME280;16219;42.864;23.360;2023-05-07T12:14:37;95889.19;;;25.24;38.42
29169;BME280;16219;42.864;23.360;2023-05-07T12:17:07;95884.53;;;25.25;38.49
29169;BME280;16219;42.864;23.360;2023-05-07T12:19:35;95866.63;;;25.38;40.52
29169;BME280;16219;42.864;23.360;2023-05-07T12:22:03;95886.03;;;25.29;38.01
29169;BME280;16219;42.864;23.360;2023-05-07T12:24:44;95877.66;;;25.20;37.14
29169;BME280;16219;42.864;23.360;2023-05-07T12:27:13;95869.81;;;25.29;37.31
29169;BME280;16219;42.864;23.360;2023-05-07T12:29:44;95860.63;;;25.23;38.12
29169;BME280;16219;42.864;23.360;2023-05-07T12:32:17;95862.31;;;25.10;36.93
29169;BME280;16219;42.864;23.360;2023-05-07T12:34:45;95869.06;;;25.29;40.00
29169;BME280;16219;42.864;23.360;2023-05-07T12:37:12;95862.53;;;25.57;38.60
29169;BME280;16219;42.864;23.360;2023-05-07T12:39:44;95856.72;;;25.58;37.63
29169;BME280;16219;42.864;23.360;2023-05-07T12:42:15;95860.81;;;25.70;39.69
29169;BME280;16219;42.864;23.360;2023-05-07T12:44:45;95856.31;;;25.90;40.94
29169;BME280;16219;42.864;23.360;2023-05-07T12:47:14;95852.75;;;26.21;40.49
29169;BME280;16219;42.864;23.360;2023-05-07T12:49:42;95840.88;;;26.14;37.30
29169;BME280;16219;42.864;23.360;2023-05-07T12:52:11;95845.16;;;26.12;37.99
29169;BME280;16219;42.864;23.360;2023-05-07T12:54:38;95840.78;;;26.22;37.72
29169;BME280;16219;42.864;23.360;2023-05-07T12:57:07;95838.66;;;25.82;36.97
29169;BME280;16219;42.864;23.360;2023-05-07T12:59:36;95835.38;;;25.95;38.05
29169;BME280;16219;42.864;23.360;2023-05-07T13:02:04;95830.03;;;25.91;36.50
29169;BME280;16219;42.864;23.360;2023-05-07T13:04:33;95823.44;;;25.96;36.76